createdAt,value
2018-01-01T00:01:07.982Z,5.37
2018-01-01T00:03:34.854Z,5.18
2018-01-01T00:06:01.662Z,5.15
2018-01-01T00:08:28.489Z,4.70
2018-01-01T00:10:55.601Z,5.62
2018-01-01T00:13:22.443Z,5.70
2018-01-01T00:15:49.598Z,4.00
2018-01-01T00:18:16.437Z,3.70
2018-01-01T00:20:43.243Z,4.37
2018-01-01T00:23:10.329Z,9.23
2018-01-01T00:25:37.191Z,6.27
2018-01-01T00:28:04.034Z,5.43
2018-01-01T00:30:30.868Z,6.70
2018-01-01T00:32:57.726Z,9.02
2018-01-01T00:35:24.553Z,11.60
2018-01-01T00:37:51.399Z,16.35
2018-01-01T00:40:18.229Z,18.30
2018-01-01T00:42:45.045Z,17.97
2018-01-01T00:45:11.890Z,17.80
2018-01-01T00:47:38.763Z,16.55
2018-01-01T00:50:05.580Z,14.35
2018-01-01T00:52:32.427Z,13.62
2018-01-01T00:54:59.260Z,10.20
2018-01-01T00:57:26.115Z,10.32
2018-01-01T00:59:53.290Z,9.30
2018-01-01T01:02:20.162Z,6.87
2018-01-01T01:04:46.990Z,5.70
2018-01-01T01:07:13.823Z,6.03
2018-01-01T01:09:40.682Z,5.93
2018-01-01T01:12:07.521Z,5.00
2018-01-01T01:14:34.411Z,4.37
2018-01-01T01:17:01.249Z,4.10
2018-01-01T01:19:28.117Z,4.30
2018-01-01T01:21:54.953Z,4.20
2018-01-01T01:24:21.810Z,4.32
2018-01-01T01:26:48.970Z,4.30
2018-01-01T01:29:15.806Z,5.35
2018-01-01T01:31:42.649Z,6.70
2018-01-01T01:34:09.490Z,7.70
2018-01-01T01:36:36.545Z,8.13
2018-01-01T01:39:03.394Z,8.77
2018-01-01T01:41:30.209Z,10.13
2018-01-01T01:43:57.056Z,10.23
2018-01-01T01:46:23.893Z,11.00
2018-01-01T01:48:50.774Z,10.07
2018-01-01T01:51:17.614Z,10.50
2018-01-01T01:53:44.469Z,10.95
2018-01-01T01:56:11.604Z,11.40
2018-01-01T01:58:38.409Z,11.60
2018-01-01T02:01:05.253Z,10.40
2018-01-01T02:03:32.085Z,10.00
2018-01-01T02:05:58.893Z,10.00
2018-01-01T02:08:26.127Z,9.80
2018-01-01T02:10:52.938Z,11.45
2018-01-01T02:13:19.765Z,11.00
2018-01-01T02:15:46.639Z,9.30
2018-01-01T02:18:13.494Z,8.60
2018-01-01T02:20:40.546Z,8.55
2018-01-01T02:23:07.402Z,7.75
2018-01-01T02:25:34.243Z,8.15
2018-01-01T02:28:01.042Z,7.33
2018-01-01T02:30:27.908Z,7.50
2018-01-01T02:32:54.759Z,8.07
2018-01-01T02:35:21.574Z,7.47
2018-01-01T02:37:48.446Z,7.22
2018-01-01T02:40:15.497Z,6.35
2018-01-01T02:42:42.651Z,5.40
2018-01-01T02:45:09.795Z,5.60
2018-01-01T02:47:36.601Z,5.00
2018-01-01T02:50:03.685Z,5.00
2018-01-01T02:52:30.525Z,5.60
2018-01-01T02:54:57.367Z,6.12
2018-01-01T02:57:24.202Z,5.70
2018-01-01T02:59:51.063Z,5.68
2018-01-01T03:02:18.221Z,5.40
2018-01-01T03:04:45.047Z,5.80
2018-01-01T03:07:12.210Z,5.60
2018-01-01T03:09:39.357Z,5.25
2018-01-01T03:12:06.174Z,5.70
2018-01-01T03:14:33.001Z,5.53
2018-01-01T03:17:00.099Z,5.60
2018-01-01T03:19:26.893Z,5.12
2018-01-01T03:21:53.950Z,5.23
2018-01-01T03:24:21.030Z,6.20
2018-01-01T03:26:48.173Z,5.90
2018-01-01T03:29:15.013Z,5.90
2018-01-01T03:31:41.818Z,6.10
2018-01-01T03:34:08.666Z,6.40
2018-01-01T03:36:35.498Z,6.12
2018-01-01T03:39:02.597Z,6.03
2018-01-01T03:41:29.462Z,5.97
2018-01-01T03:43:56.358Z,6.00
2018-01-01T03:46:23.208Z,6.10
2018-01-01T03:48:50.039Z,7.20
2018-01-01T03:51:16.901Z,6.10
2018-01-01T03:53:43.734Z,6.25
2018-01-01T03:56:10.582Z,6.70
2018-01-01T03:58:37.754Z,6.80
2018-01-01T04:01:04.586Z,6.68
2018-01-01T04:03:31.443Z,6.85
2018-01-01T04:05:58.335Z,6.53
2018-01-01T04:08:25.191Z,6.80
2018-01-01T04:10:52.397Z,7.00
2018-01-01T04:13:19.531Z,7.10
2018-01-01T04:15:46.677Z,7.00
2018-01-01T04:18:13.483Z,7.20
2018-01-01T04:20:40.363Z,7.22
2018-01-01T04:23:07.518Z,7.10
2018-01-01T04:25:34.669Z,7.60
2018-01-01T04:28:01.497Z,7.93
2018-01-01T04:30:28.668Z,7.43
2018-01-01T04:32:55.474Z,7.32
2018-01-01T04:35:22.325Z,8.10
2018-01-01T04:37:49.125Z,7.72
2018-01-01T04:40:15.932Z,7.28
2018-01-01T04:42:42.761Z,7.20
2018-01-01T04:45:09.927Z,7.65
2018-01-01T04:47:36.733Z,7.80
2018-01-01T04:50:03.919Z,7.40
2018-01-01T04:52:30.717Z,8.27
2018-01-01T04:54:57.553Z,8.02
2018-01-01T04:57:24.758Z,7.65
2018-01-01T04:59:51.571Z,8.07
2018-01-01T05:02:18.380Z,7.40
2018-01-01T05:04:45.231Z,7.55
2018-01-01T05:07:12.075Z,7.05
2018-01-01T05:09:39.173Z,7.62
2018-01-01T05:12:06.331Z,6.82
2018-01-01T05:14:33.479Z,6.85
2018-01-01T05:17:00.273Z,7.43
2018-01-01T05:19:27.474Z,7.07
2018-01-01T05:21:54.305Z,7.10
2018-01-01T05:24:21.476Z,7.00
2018-01-01T05:26:48.346Z,6.70
2018-01-01T05:29:15.453Z,6.47
2018-01-01T05:31:42.294Z,6.20
2018-01-01T05:34:09.445Z,6.32
2018-01-01T05:36:36.253Z,5.80
2018-01-01T05:39:03.356Z,7.00
2018-01-01T05:41:30.226Z,6.80
2018-01-01T05:43:57.361Z,6.95
2018-01-01T05:46:24.487Z,6.90
2018-01-01T05:48:51.309Z,7.20
2018-01-01T05:51:18.382Z,7.57
2018-01-01T05:53:45.226Z,6.90
2018-01-01T05:56:12.110Z,7.50
2018-01-01T05:58:38.946Z,7.30
2018-01-01T06:01:05.790Z,7.72
2018-01-01T06:03:32.654Z,7.40
2018-01-01T06:05:59.484Z,7.15
2018-01-01T06:08:26.724Z,7.40
2018-01-01T06:10:53.534Z,7.70
2018-01-01T06:13:20.348Z,7.40
2018-01-01T06:15:47.416Z,7.90
2018-01-01T06:18:14.465Z,8.18
2018-01-01T06:20:41.622Z,8.65
2018-01-01T06:23:08.467Z,8.90
2018-01-01T06:25:35.613Z,9.35
2018-01-01T06:28:02.441Z,8.80
2018-01-01T06:30:29.257Z,8.73
2018-01-01T06:32:56.097Z,9.63
2018-01-01T06:35:22.934Z,8.40
2018-01-01T06:37:50.035Z,8.50
2018-01-01T06:40:16.853Z,8.48
2018-01-01T06:42:43.694Z,8.20
2018-01-01T06:45:10.875Z,7.80
2018-01-01T06:47:38.018Z,8.18
2018-01-01T06:50:04.824Z,7.72
2018-01-01T06:52:31.657Z,7.70
2018-01-01T06:54:58.457Z,7.27
2018-01-01T06:57:25.331Z,7.00
2018-01-01T06:59:52.160Z,6.50
2018-01-01T07:02:18.982Z,6.10
2018-01-01T07:04:45.809Z,5.70
2018-01-01T07:07:12.641Z,5.50
2018-01-01T07:09:39.502Z,5.50
2018-01-01T07:12:06.340Z,5.30
2018-01-01T07:14:33.181Z,5.20
2018-01-01T07:17:00.031Z,4.80
2018-01-01T07:19:26.939Z,4.47
2018-01-01T07:21:53.797Z,4.03
2018-01-01T07:24:20.638Z,4.50
2018-01-01T07:26:47.718Z,4.28
2018-01-01T07:29:14.603Z,3.42
2018-01-01T07:31:41.710Z,3.45
2018-01-01T07:34:08.860Z,3.30
2018-01-01T07:36:35.698Z,3.20
2018-01-01T07:39:02.545Z,3.22
2018-01-01T07:41:29.389Z,3.08
2018-01-01T07:43:56.191Z,2.67
2018-01-01T07:46:23.386Z,2.30
2018-01-01T07:48:50.329Z,2.25
2018-01-01T07:51:17.159Z,2.30
2018-01-01T07:53:44.329Z,1.83
2018-01-01T07:56:11.129Z,1.60
2018-01-01T07:58:38.014Z,1.63
2018-01-01T08:01:04.838Z,1.90
2018-01-01T08:03:31.633Z,1.30
2018-01-01T08:05:58.741Z,1.67
2018-01-01T08:08:25.541Z,1.60
2018-01-01T08:10:52.415Z,1.45
2018-01-01T08:13:19.475Z,1.30
2018-01-01T08:15:46.319Z,1.60
2018-01-01T08:18:13.147Z,1.45
2018-01-01T08:20:39.944Z,1.50
2018-01-01T08:23:06.839Z,1.23
2018-01-01T08:25:33.664Z,1.37
2018-01-01T08:28:00.474Z,1.48
2018-01-01T08:30:27.293Z,1.40
2018-01-01T08:32:54.138Z,1.00
2018-01-01T08:35:21.270Z,1.20
2018-01-01T08:37:48.422Z,0.90
2018-01-01T08:40:15.918Z,0.88
2018-01-01T08:42:42.737Z,0.80
2018-01-01T08:45:09.584Z,0.90
2018-01-01T08:47:36.426Z,0.90
2018-01-01T08:50:03.246Z,0.90
2018-01-01T08:52:30.067Z,1.05
2018-01-01T08:54:56.899Z,1.10
2018-01-01T08:57:23.724Z,1.00
2018-01-01T08:59:50.558Z,0.90
2018-01-01T09:02:17.353Z,1.20
2018-01-01T09:04:44.519Z,1.00
2018-01-01T09:07:11.668Z,1.00
2018-01-01T09:09:38.469Z,1.10
2018-01-01T09:12:05.317Z,1.33
2018-01-01T09:14:32.134Z,1.10
2018-01-01T09:16:58.966Z,1.00
2018-01-01T09:19:25.843Z,1.10
2018-01-01T09:21:52.706Z,1.00
2018-01-01T09:24:19.517Z,1.12
2018-01-01T09:26:46.618Z,1.10
2018-01-01T09:29:13.766Z,1.00
2018-01-01T09:31:40.586Z,1.00
2018-01-01T09:34:07.405Z,1.10
2018-01-01T09:36:34.205Z,0.90
2018-01-01T09:39:01.039Z,1.00
2018-01-01T09:41:28.190Z,1.30
2018-01-01T09:43:55.339Z,1.20
2018-01-01T09:46:22.152Z,1.75
2018-01-01T09:48:48.965Z,1.20
2018-01-01T09:51:16.023Z,1.00
2018-01-01T09:53:42.841Z,1.30
2018-01-01T09:56:09.968Z,1.08
2018-01-01T09:58:36.781Z,1.40
2018-01-01T10:01:03.581Z,1.40
2018-01-01T10:03:31.027Z,1.37
2018-01-01T10:05:58.157Z,1.10
2018-01-01T10:08:24.957Z,1.95
2018-01-01T10:10:51.818Z,1.73
2018-01-01T10:13:18.998Z,1.30
2018-01-01T10:15:45.825Z,1.10
2018-01-01T10:18:12.987Z,1.40
2018-01-01T10:20:39.793Z,1.20
2018-01-01T10:23:06.989Z,1.10
2018-01-01T10:25:34.126Z,1.10
2018-01-01T10:28:00.963Z,1.40
2018-01-01T10:30:28.227Z,1.20
2018-01-01T10:32:55.017Z,1.70
2018-01-01T10:35:22.119Z,1.30
2018-01-01T10:37:48.914Z,1.00
2018-01-01T10:40:15.745Z,1.50
2018-01-01T10:42:42.587Z,1.35
2018-01-01T10:45:09.423Z,2.20
2018-01-01T10:47:36.539Z,1.80
2018-01-01T10:50:03.603Z,2.58
2018-01-01T10:52:30.737Z,1.70
2018-01-01T10:54:57.582Z,1.20
2018-01-01T10:57:24.414Z,2.72
2018-01-01T10:59:51.233Z,1.35
2018-01-01T11:02:18.312Z,1.30
2018-01-01T11:04:45.106Z,1.60
2018-01-01T11:07:11.954Z,1.30
2018-01-01T11:09:38.800Z,1.30
2018-01-01T11:12:05.636Z,1.40
2018-01-01T11:14:32.736Z,1.48
2018-01-01T11:16:59.582Z,1.15
2018-01-01T11:19:26.463Z,1.40
2018-01-01T11:21:53.571Z,1.33
2018-01-01T11:24:20.717Z,1.35
2018-01-01T11:26:47.567Z,1.27
2018-01-01T11:29:14.398Z,1.37
2018-01-01T11:31:41.255Z,1.40
2018-01-01T11:34:08.056Z,1.90
2018-01-01T11:36:34.893Z,1.50
2018-01-01T11:39:01.694Z,3.92
2018-01-01T11:41:28.821Z,2.53
2018-01-01T11:43:55.674Z,1.50
2018-01-01T11:46:22.713Z,1.80
2018-01-01T11:48:49.571Z,1.57
2018-01-01T11:51:16.369Z,1.70
2018-01-01T11:53:43.194Z,1.55
2018-01-01T11:56:10.293Z,14.98
2018-01-01T11:58:37.450Z,1.70
2018-01-01T12:01:04.289Z,1.50
2018-01-01T12:03:31.102Z,1.90
2018-01-01T12:05:57.907Z,1.60
2018-01-01T12:08:24.758Z,1.80
2018-01-01T12:10:51.867Z,1.70
2018-01-01T12:13:19.018Z,1.83
2018-01-01T12:15:46.171Z,2.20
2018-01-01T12:18:13.323Z,1.73
2018-01-01T12:20:40.145Z,1.58
2018-01-01T12:23:06.998Z,2.15
2018-01-01T12:25:33.825Z,1.70
2018-01-01T12:28:00.630Z,1.60
2018-01-01T12:30:27.449Z,1.75
2018-01-01T12:32:54.577Z,1.60
2018-01-01T12:35:21.393Z,1.33
2018-01-01T12:37:48.261Z,2.20
2018-01-01T12:40:15.090Z,1.67
2018-01-01T12:42:41.958Z,10.07
2018-01-01T12:45:08.781Z,1.90
2018-01-01T12:47:35.622Z,1.65
2018-01-01T12:50:02.461Z,1.90
2018-01-01T12:52:29.638Z,1.73
2018-01-01T12:54:56.487Z,1.75
2018-01-01T12:57:23.355Z,2.20
2018-01-01T12:59:50.172Z,1.90
2018-01-01T13:02:17.044Z,2.00
2018-01-01T13:04:43.870Z,1.70
2018-01-01T13:07:10.669Z,1.75
2018-01-01T13:09:37.494Z,1.70
2018-01-01T13:12:04.581Z,1.60
2018-01-01T13:14:31.734Z,1.83
2018-01-01T13:16:58.582Z,1.52
2018-01-01T13:19:25.424Z,1.70
2018-01-01T13:21:52.250Z,1.73
2018-01-01T13:24:19.061Z,1.70
2018-01-01T13:26:45.914Z,1.60
2018-01-01T13:29:12.997Z,1.70
2018-01-01T13:31:39.798Z,1.57
2018-01-01T13:34:06.656Z,1.50
2018-01-01T13:36:33.734Z,1.60
2018-01-01T13:39:00.887Z,1.90
2018-01-01T13:41:27.917Z,1.87
2018-01-01T13:43:56.832Z,1.67
2018-01-01T13:46:27.804Z,1.73
2018-01-01T13:48:56.839Z,1.60
2018-01-01T13:51:27.229Z,1.62
2018-01-01T13:53:56.520Z,1.70
2018-01-01T13:56:28.705Z,1.60
2018-01-01T13:59:02.231Z,3.35
2018-01-01T14:01:37.028Z,2.10
2018-01-01T14:04:08.876Z,1.60
2018-01-01T14:06:42.304Z,1.40
2018-01-01T14:09:15.638Z,1.50
2018-01-01T14:11:50.652Z,1.50
2018-01-01T14:14:25.123Z,1.50
2018-01-01T14:16:58.021Z,1.30
2018-01-01T14:19:30.834Z,1.62
2018-01-01T14:22:04.322Z,1.52
2018-01-01T14:24:37.164Z,1.50
2018-01-01T14:27:10.797Z,3.10
2018-01-01T14:29:44.519Z,2.50
2018-01-01T14:32:18.601Z,1.60
2018-01-01T14:34:52.701Z,1.40
2018-01-01T14:37:27.385Z,1.83
2018-01-01T14:40:03.505Z,1.35
2018-01-01T14:42:40.294Z,1.70
2018-01-01T14:45:13.153Z,1.40
2018-01-01T14:47:44.383Z,1.50
2018-01-01T14:50:17.167Z,1.50
2018-01-01T14:52:50.924Z,1.40
2018-01-01T14:55:24.142Z,1.73
2018-01-01T14:57:56.155Z,1.60
2018-01-01T15:00:29.173Z,5.53
2018-01-01T15:03:02.802Z,2.80
2018-01-01T15:05:36.506Z,2.62
2018-01-01T15:08:09.555Z,1.60
2018-01-01T15:10:37.884Z,1.90
2018-01-01T15:13:04.813Z,1.58
2018-01-01T15:15:31.945Z,4.95
2018-01-01T15:17:58.769Z,2.35
2018-01-01T15:20:26.771Z,1.60
2018-01-01T15:22:53.658Z,1.60
2018-01-01T15:25:21.379Z,2.67
2018-01-01T15:27:48.265Z,2.10
2018-01-01T15:30:15.108Z,2.00
2018-01-01T15:32:42.231Z,1.95
2018-01-01T15:35:09.382Z,2.07
2018-01-01T15:37:36.525Z,2.20
2018-01-01T15:40:03.396Z,3.45
2018-01-01T15:42:30.203Z,2.00
2018-01-01T15:44:57.063Z,2.50
2018-01-01T15:47:23.907Z,2.17
2018-01-01T15:49:50.953Z,2.05
2018-01-01T15:52:17.803Z,2.10
2018-01-01T15:54:44.838Z,2.00
2018-01-01T15:57:11.715Z,2.07
2018-01-01T15:59:38.509Z,1.97
2018-01-01T16:02:05.319Z,2.03
2018-01-01T16:04:32.365Z,2.00
2018-01-01T16:06:59.165Z,1.80
2018-01-01T16:09:26.034Z,2.22
2018-01-01T16:11:52.862Z,1.95
2018-01-01T16:14:19.726Z,1.90
2018-01-01T16:16:46.630Z,2.50
2018-01-01T16:19:13.437Z,2.30
2018-01-01T16:21:40.292Z,2.30
2018-01-01T16:24:07.119Z,2.30
2018-01-01T16:26:34.241Z,1.80
2018-01-01T16:29:01.065Z,1.95
2018-01-01T16:31:28.211Z,1.65
2018-01-01T16:33:55.087Z,1.67
2018-01-01T16:36:22.203Z,2.00
2018-01-01T16:38:49.029Z,1.70
2018-01-01T16:41:16.195Z,1.80
2018-01-01T16:43:43.018Z,1.85
2018-01-01T16:46:10.191Z,1.90
2018-01-01T16:48:37.060Z,1.95
2018-01-01T16:51:04.075Z,1.85
2018-01-01T16:53:30.894Z,1.80
2018-01-01T16:55:57.701Z,2.00
2018-01-01T16:58:24.572Z,2.20
2018-01-01T17:00:51.653Z,1.90
2018-01-01T17:03:18.495Z,1.70
2018-01-01T17:05:45.645Z,2.10
2018-01-01T17:08:12.454Z,1.70
2018-01-01T17:10:39.289Z,1.90
2018-01-01T17:13:06.102Z,1.92
2018-01-01T17:15:32.905Z,2.00
2018-01-01T17:17:59.727Z,2.30
2018-01-01T17:20:26.530Z,1.70
2018-01-01T17:22:53.390Z,1.92
2018-01-01T17:25:20.499Z,2.00
2018-01-01T17:27:47.543Z,1.60
2018-01-01T17:30:14.390Z,2.00
2018-01-01T17:32:41.225Z,1.70
2018-01-01T17:35:08.078Z,1.85
2018-01-01T17:37:34.911Z,1.85
2018-01-01T17:40:01.961Z,1.80
2018-01-01T17:42:28.814Z,2.10
2018-01-01T17:44:55.647Z,2.20
2018-01-01T17:47:22.506Z,1.80
2018-01-01T17:49:49.362Z,1.90
2018-01-01T17:52:16.169Z,2.10
2018-01-01T17:54:43.018Z,1.83
2018-01-01T17:57:09.825Z,1.95
2018-01-01T17:59:36.913Z,2.20
2018-01-01T18:02:04.066Z,2.00
2018-01-01T18:04:30.922Z,2.22
2018-01-01T18:06:57.775Z,2.20
2018-01-01T18:09:24.589Z,2.90
2018-01-01T18:11:51.426Z,2.50
2018-01-01T18:14:18.255Z,3.25
2018-01-01T18:16:45.053Z,2.35
2018-01-01T18:19:11.881Z,1.90
2018-01-01T18:21:39.017Z,2.00
2018-01-01T18:24:05.877Z,2.00
2018-01-01T18:26:32.710Z,1.90
2018-01-01T18:28:59.550Z,2.03
2018-01-01T18:31:26.722Z,8.82
2018-01-01T18:33:53.625Z,5.80
2018-01-01T18:36:20.499Z,6.97
2018-01-01T18:38:47.342Z,10.13
2018-01-01T18:41:14.164Z,5.78
2018-01-01T18:43:41.011Z,2.25
2018-01-01T18:46:07.855Z,2.28
2018-01-01T18:48:34.722Z,2.00
2018-01-01T18:51:01.859Z,2.00
2018-01-01T18:53:28.663Z,2.00
2018-01-01T18:55:55.752Z,2.00
2018-01-01T18:58:22.546Z,1.95
2018-01-01T19:00:49.635Z,2.00
2018-01-01T19:03:16.433Z,2.20
2018-01-01T19:05:43.275Z,2.72
2018-01-01T19:08:10.366Z,3.95
2018-01-01T19:10:37.416Z,2.40
2018-01-01T19:13:04.507Z,2.10
2018-01-01T19:15:31.330Z,2.40
2018-01-01T19:17:58.162Z,2.50
2018-01-01T19:20:25.011Z,2.40
2018-01-01T19:22:51.803Z,2.50
2018-01-01T19:25:18.675Z,2.40
2018-01-01T19:27:45.733Z,2.55
2018-01-01T19:30:12.525Z,2.80
2018-01-01T19:32:39.617Z,2.30
2018-01-01T19:35:06.471Z,2.30
2018-01-01T19:37:33.320Z,2.20
2018-01-01T19:40:00.349Z,2.20
2018-01-01T19:42:27.187Z,2.40
2018-01-01T19:44:54.004Z,2.30
2018-01-01T19:47:20.828Z,2.40
2018-01-01T19:49:48.034Z,2.10
2018-01-01T19:52:14.843Z,2.10
2018-01-01T19:54:41.672Z,2.00
2018-01-01T19:57:08.515Z,1.90
2018-01-01T19:59:35.653Z,1.90
2018-01-01T20:02:02.478Z,2.30
2018-01-01T20:04:29.335Z,2.20
2018-01-01T20:06:56.145Z,2.12
2018-01-01T20:09:22.995Z,2.00
2018-01-01T20:11:49.806Z,2.70
2018-01-01T20:14:16.687Z,2.00
2018-01-01T20:16:43.817Z,2.10
2018-01-01T20:19:10.675Z,1.80
2018-01-01T20:21:37.758Z,2.20
2018-01-01T20:24:04.555Z,2.00
2018-01-01T20:26:31.434Z,1.80
2018-01-01T20:28:59.118Z,2.20
2018-01-01T20:31:26.221Z,1.80
2018-01-01T20:33:53.050Z,1.98
2018-01-01T20:36:20.093Z,1.80
2018-01-01T20:38:46.921Z,2.03
2018-01-01T20:41:13.998Z,1.92
2018-01-01T20:43:40.807Z,1.92
2018-01-01T20:46:07.661Z,2.40
2018-01-01T20:48:34.691Z,2.00
2018-01-01T20:51:01.739Z,2.20
2018-01-01T20:53:28.583Z,2.20
2018-01-01T20:55:55.402Z,2.35
2018-01-01T20:58:22.265Z,2.20
2018-01-01T21:00:49.095Z,2.15
2018-01-01T21:03:15.950Z,2.00
2018-01-01T21:05:42.788Z,2.00
2018-01-01T21:08:09.881Z,2.30
2018-01-01T21:10:36.759Z,1.80
2018-01-01T21:13:03.610Z,2.25
2018-01-01T21:16:51.023Z,1.90
2018-01-01T21:19:17.829Z,1.67
2018-01-01T21:21:44.993Z,1.92
2018-01-01T21:24:11.819Z,2.03
2018-01-01T21:26:38.885Z,1.75
2018-01-01T21:29:05.699Z,2.30
2018-01-01T21:31:32.547Z,2.00
2018-01-01T21:33:59.387Z,2.10
2018-01-01T21:36:26.468Z,2.20
2018-01-01T21:38:53.298Z,1.70
2018-01-01T21:41:20.151Z,1.77
2018-01-01T21:43:46.974Z,1.80
2018-01-01T21:46:13.826Z,2.10
2018-01-01T21:48:40.663Z,1.70
2018-01-01T21:51:07.472Z,1.80
2018-01-01T21:53:34.781Z,2.00
2018-01-01T21:56:01.693Z,2.10
2018-01-01T21:58:28.529Z,1.92
2018-01-01T22:00:55.380Z,1.62
2018-01-01T22:03:22.220Z,1.60
2018-01-01T22:05:49.037Z,1.87
2018-01-01T22:08:15.846Z,1.40
2018-01-01T22:10:42.714Z,1.70
2018-01-01T22:13:09.521Z,1.77
2018-01-01T22:15:36.359Z,1.60
2018-01-01T22:18:03.178Z,1.50
2018-01-01T22:20:30.011Z,1.70
2018-01-01T22:22:57.107Z,1.70
2018-01-01T22:25:23.948Z,1.55
2018-01-01T22:27:50.741Z,1.37
2018-01-01T22:30:17.700Z,1.40
2018-01-01T22:32:44.501Z,1.40
2018-01-01T22:35:11.630Z,1.40
2018-01-01T22:37:38.634Z,1.37
2018-01-01T22:40:05.474Z,1.40
2018-01-01T22:42:32.323Z,1.62
2018-01-01T22:44:59.137Z,1.50
2018-01-01T22:47:25.965Z,1.48
2018-01-01T22:49:52.767Z,1.60
2018-01-01T22:52:19.607Z,1.60
2018-01-01T22:54:46.434Z,1.35
2018-01-01T22:57:13.241Z,1.60
2018-01-01T22:59:40.066Z,1.42
2018-01-01T23:02:06.876Z,1.87
2018-01-01T23:04:33.740Z,1.70
2018-01-01T23:07:00.590Z,1.50
2018-01-01T23:09:27.401Z,1.40
2018-01-01T23:11:54.268Z,1.50
2018-01-01T23:14:21.110Z,1.80
2018-01-01T23:16:48.263Z,1.60
2018-01-01T23:19:15.065Z,1.40
2018-01-01T23:21:41.901Z,1.50
2018-01-01T23:24:08.996Z,1.67
2018-01-01T23:26:36.147Z,2.10
2018-01-01T23:29:02.981Z,1.40
2018-01-01T23:31:29.801Z,2.00
2018-01-01T23:33:56.989Z,1.50
2018-01-01T23:36:23.838Z,1.40
2018-01-01T23:38:50.980Z,1.25
2018-01-01T23:41:17.831Z,1.40
2018-01-01T23:43:44.655Z,1.40
2018-01-01T23:46:11.712Z,1.48
2018-01-01T23:48:38.868Z,1.37
2018-01-01T23:51:05.685Z,1.20
2018-01-01T23:53:32.527Z,1.50
2018-01-01T23:55:59.349Z,1.20
2018-01-01T23:58:26.543Z,1.40
